createdAt,value
2019-01-24T00:01:12.746Z,100471.78
2019-01-24T00:03:42.733Z,100474.53
2019-01-24T00:06:12.708Z,100478.16
2019-01-24T00:08:42.465Z,100476.19
2019-01-24T00:11:12.359Z,100485.95
2019-01-24T00:13:42.080Z,100479.14
2019-01-24T00:16:12.732Z,100488.88
2019-01-24T00:18:42.492Z,100486.66
2019-01-24T00:21:12.238Z,100491.64
2019-01-24T00:23:42.011Z,100495.00
2019-01-24T00:26:11.717Z,100501.53
2019-01-24T00:28:41.393Z,100496.09
2019-01-24T00:31:11.155Z,100503.28
2019-01-24T00:33:40.862Z,100500.14
2019-01-24T00:36:10.626Z,100503.68
2019-01-24T00:38:40.270Z,100507.72
2019-01-24T00:41:10.037Z,100510.53
2019-01-24T00:43:39.857Z,100513.02
2019-01-24T00:46:09.695Z,100518.52
2019-01-24T00:48:39.439Z,100520.05
2019-01-24T00:51:09.165Z,100524.87
2019-01-24T00:53:38.854Z,100529.31
2019-01-24T00:56:08.660Z,100532.52
2019-01-24T00:58:38.475Z,100533.92
2019-01-24T01:01:08.293Z,100531.59
2019-01-24T01:03:38.066Z,100527.98
2019-01-24T01:06:08.034Z,100532.14
2019-01-24T01:08:37.743Z,100540.38
2019-01-24T01:11:07.734Z,100536.08
2019-01-24T01:13:37.452Z,100537.12
2019-01-24T01:16:07.260Z,100540.75
2019-01-24T01:18:36.968Z,100547.45
2019-01-24T01:21:06.783Z,100554.74
2019-01-24T01:23:36.554Z,100556.88
2019-01-24T01:26:06.713Z,100555.38
2019-01-24T01:28:36.601Z,100549.89
2019-01-24T01:31:06.973Z,100556.55
2019-01-24T01:33:36.781Z,100566.59
2019-01-24T01:36:06.674Z,100560.45
2019-01-24T01:38:36.330Z,100563.05
2019-01-24T01:41:06.234Z,100561.75
2019-01-24T01:43:35.989Z,100557.57
2019-01-24T01:46:06.017Z,100563.17
2019-01-24T01:48:35.697Z,100565.14
2019-01-24T01:51:05.476Z,100572.64
2019-01-24T01:53:35.168Z,100572.39
2019-01-24T01:56:05.030Z,100575.70
2019-01-24T01:58:34.890Z,100576.61
2019-01-24T02:01:05.980Z,100576.09
2019-01-24T02:03:35.750Z,100585.27
2019-01-24T02:06:05.847Z,100586.84
2019-01-24T02:08:35.705Z,100589.81
2019-01-24T02:11:05.983Z,100586.32
2019-01-24T02:13:35.657Z,100587.65
2019-01-24T02:16:05.523Z,100594.63
2019-01-24T02:18:35.349Z,100593.33
2019-01-24T02:21:05.343Z,100591.78
2019-01-24T02:23:35.230Z,100592.45
2019-01-24T02:26:05.214Z,100591.95
2019-01-24T02:28:34.916Z,100593.16
2019-01-24T02:31:04.895Z,100599.95
2019-01-24T02:33:34.571Z,100600.88
2019-01-24T02:36:04.492Z,100599.09
2019-01-24T02:38:34.158Z,100592.59
2019-01-24T02:41:04.001Z,100598.18
2019-01-24T02:43:33.653Z,100597.03
2019-01-24T02:46:03.545Z,100595.66
2019-01-24T02:48:33.285Z,100599.19
2019-01-24T02:51:03.029Z,100597.78
2019-01-24T02:53:32.831Z,100604.91
2019-01-24T02:56:02.635Z,100606.70
2019-01-24T02:58:32.349Z,100602.05
2019-01-24T03:01:02.024Z,100603.15
2019-01-24T03:03:31.704Z,100607.42
2019-01-24T03:06:01.450Z,100612.95
2019-01-24T03:08:31.152Z,100604.95
2019-01-24T03:11:00.878Z,100601.20
2019-01-24T03:13:30.659Z,100606.87
2019-01-24T03:16:00.398Z,100606.27
2019-01-24T03:18:30.160Z,100608.17
2019-01-24T03:20:59.918Z,100606.81
2019-01-24T03:23:29.712Z,100606.03
2019-01-24T03:25:59.532Z,100606.70
2019-01-24T03:28:29.245Z,100608.36
2019-01-24T03:30:58.987Z,100609.34
2019-01-24T03:33:28.762Z,100605.95
2019-01-24T03:35:58.432Z,100608.92
2019-01-24T03:38:28.158Z,100616.02
2019-01-24T03:40:57.883Z,100614.01
2019-01-24T03:43:27.675Z,100623.74
2019-01-24T03:45:57.432Z,100616.23
2019-01-24T03:48:27.147Z,100614.30
2019-01-24T03:50:56.853Z,100622.45
2019-01-24T03:53:26.513Z,100618.34
2019-01-24T03:55:56.364Z,100624.20
2019-01-24T03:58:26.021Z,100630.70
2019-01-24T04:00:55.693Z,100625.30
2019-01-24T04:03:25.372Z,100629.89
2019-01-24T04:05:55.106Z,100634.30
2019-01-24T04:08:24.942Z,100635.89
2019-01-24T04:10:54.656Z,100631.34
2019-01-24T04:13:24.366Z,100630.88
2019-01-24T04:15:54.177Z,100634.59
2019-01-24T04:18:23.945Z,100635.57
2019-01-24T04:20:53.614Z,100630.03
2019-01-24T04:23:23.321Z,100639.95
2019-01-24T04:25:53.154Z,100638.22
2019-01-24T04:28:22.838Z,100642.23
2019-01-24T04:30:52.497Z,100651.95
2019-01-24T04:33:22.311Z,100648.91
2019-01-24T04:35:52.095Z,100652.83
2019-01-24T04:38:21.758Z,100664.58
2019-01-24T04:40:51.457Z,100664.58
2019-01-24T04:43:21.135Z,100673.62
2019-01-24T04:45:50.825Z,100666.63
2019-01-24T04:48:20.473Z,100663.41
2019-01-24T04:50:50.333Z,100661.20
2019-01-24T04:53:20.005Z,100662.29
2019-01-24T04:55:49.706Z,100664.33
2019-01-24T04:58:19.451Z,100674.14
2019-01-24T05:00:49.101Z,100680.13
2019-01-24T05:03:18.807Z,100677.20
2019-01-24T05:05:49.725Z,100680.49
2019-01-24T05:08:19.450Z,100681.73
2019-01-24T05:10:49.284Z,100681.88
2019-01-24T05:13:19.081Z,100687.09
2019-01-24T05:15:48.734Z,100693.35
2019-01-24T05:18:18.494Z,100692.89
2019-01-24T05:20:48.254Z,100689.25
2019-01-24T05:23:17.984Z,100698.11
2019-01-24T05:25:47.651Z,100692.61
2019-01-24T05:28:17.581Z,100696.62
2019-01-24T05:30:47.372Z,100696.62
2019-01-24T05:33:17.899Z,100698.27
2019-01-24T05:35:47.613Z,100700.47
2019-01-24T05:38:17.346Z,100700.08
2019-01-24T05:40:47.272Z,100709.92
2019-01-24T05:43:16.924Z,100706.89
2019-01-24T05:45:46.873Z,100703.31
2019-01-24T05:48:16.738Z,100709.69
2019-01-24T05:50:46.558Z,100705.24
2019-01-24T05:53:16.553Z,100711.17
2019-01-24T05:55:46.277Z,100709.57
2019-01-24T05:58:15.912Z,100706.88
2019-01-24T06:00:46.123Z,100703.27
2019-01-24T06:03:15.969Z,100697.80
2019-01-24T06:05:45.754Z,100700.83
2019-01-24T06:08:15.671Z,100699.95
2019-01-24T06:10:45.385Z,100707.72
2019-01-24T06:13:15.104Z,100703.39
2019-01-24T06:15:44.768Z,100705.48
2019-01-24T06:18:14.525Z,100701.02
2019-01-24T06:20:44.273Z,100699.29
2019-01-24T06:23:13.952Z,100700.00
2019-01-24T06:25:43.639Z,100703.31
2019-01-24T06:28:13.813Z,100704.98
2019-01-24T06:30:43.580Z,100705.14
2019-01-24T06:33:14.464Z,100719.20
2019-01-24T06:35:48.657Z,100722.45
2019-01-24T06:38:15.741Z,100727.38
2019-01-24T06:40:45.415Z,100731.80
2019-01-24T06:43:15.221Z,100732.97
2019-01-24T06:45:44.951Z,100736.68
2019-01-24T06:48:14.689Z,100745.66
2019-01-24T06:50:44.402Z,100748.70
2019-01-24T06:53:14.190Z,100749.62
2019-01-24T06:55:43.954Z,100751.18
2019-01-24T06:58:13.775Z,100753.55
2019-01-24T07:00:43.625Z,100758.15
2019-01-24T07:03:13.380Z,100769.02
2019-01-24T07:05:43.063Z,100769.73
2019-01-24T07:08:12.919Z,100777.05
2019-01-24T07:10:42.651Z,100779.25
2019-01-24T07:13:12.333Z,100785.08
2019-01-24T07:15:42.036Z,100785.98
2019-01-24T07:18:11.814Z,100787.28
2019-01-24T07:20:41.484Z,100786.59
2019-01-24T07:23:11.267Z,100793.92
2019-01-24T07:25:41.016Z,100787.10
2019-01-24T07:28:10.724Z,100793.21
2019-01-24T07:30:40.503Z,100801.33
2019-01-24T07:33:10.386Z,100809.17
2019-01-24T07:35:40.170Z,100812.77
2019-01-24T07:38:09.921Z,100818.50
2019-01-24T07:40:39.573Z,100823.31
2019-01-24T07:43:09.263Z,100828.12
2019-01-24T07:45:40.757Z,100836.14
2019-01-24T07:48:10.645Z,100832.35
2019-01-24T07:50:40.365Z,100841.15
2019-01-24T07:53:10.219Z,100846.67
2019-01-24T07:55:40.072Z,100853.83
2019-01-24T07:58:09.998Z,100855.66
2019-01-24T08:00:39.707Z,100856.85
2019-01-24T08:03:09.447Z,100852.83
2019-01-24T08:05:39.151Z,100856.13
2019-01-24T08:08:09.118Z,100869.20
2019-01-24T08:10:38.870Z,100865.56
2019-01-24T08:13:08.776Z,100868.59
2019-01-24T08:15:38.557Z,100872.80
2019-01-24T08:18:08.643Z,100874.31
2019-01-24T08:20:38.408Z,100884.95
2019-01-24T08:23:08.330Z,100888.28
2019-01-24T08:25:38.068Z,100889.67
2019-01-24T08:28:07.901Z,100889.89
2019-01-24T08:30:37.641Z,100889.19
2019-01-24T08:33:07.531Z,100884.17
2019-01-24T08:35:37.360Z,100885.37
2019-01-24T08:38:07.388Z,100888.47
2019-01-24T08:40:37.042Z,100886.43
2019-01-24T08:43:06.863Z,100894.09
2019-01-24T08:45:36.683Z,100888.34
2019-01-24T08:48:06.564Z,100896.25
2019-01-24T08:50:36.333Z,100895.55
2019-01-24T08:53:06.532Z,100890.55
2019-01-24T08:55:38.930Z,100887.56
2019-01-24T08:58:09.104Z,100886.88
2019-01-24T09:00:38.947Z,100881.94
2019-01-24T09:03:08.678Z,100884.02
2019-01-24T09:05:38.517Z,100892.25
2019-01-24T09:08:08.911Z,100885.23
2019-01-24T09:10:40.111Z,100887.04
2019-01-24T09:13:10.032Z,100888.11
2019-01-24T09:15:40.009Z,100886.41
2019-01-24T09:18:09.974Z,100889.35
2019-01-24T09:20:39.826Z,100889.35
2019-01-24T09:23:09.864Z,100884.14
2019-01-24T09:25:39.787Z,100870.89
2019-01-24T09:28:14.848Z,100871.42
2019-01-24T09:30:41.036Z,100870.61
2019-01-24T09:33:10.752Z,100872.20
2019-01-24T09:35:40.540Z,100875.00
2019-01-24T09:38:10.202Z,100876.84
2019-01-24T09:40:39.920Z,100882.55
2019-01-24T09:43:09.597Z,100882.47
2019-01-24T09:45:39.536Z,100882.05
2019-01-24T09:48:09.725Z,100889.28
2019-01-24T09:50:39.529Z,100891.39
2019-01-24T09:53:09.222Z,100891.30
2019-01-24T09:55:38.977Z,100888.16
2019-01-24T09:58:08.819Z,100900.63
2019-01-24T10:00:38.707Z,100900.11
2019-01-24T10:03:08.797Z,100901.71
2019-01-24T10:05:38.859Z,100899.30
2019-01-24T10:08:08.861Z,100906.11
2019-01-24T10:10:38.663Z,100910.31
2019-01-24T10:13:08.587Z,100916.52
2019-01-24T10:15:38.484Z,100920.49
2019-01-24T10:18:08.262Z,100910.95
2019-01-24T10:20:38.004Z,100916.47
2019-01-24T10:23:07.749Z,100917.46
2019-01-24T10:25:38.139Z,100929.52
2019-01-24T10:28:08.136Z,100925.91
2019-01-24T10:30:42.627Z,100929.30
2019-01-24T10:33:09.880Z,100925.91
2019-01-24T10:35:39.886Z,100937.09
2019-01-24T10:38:09.692Z,100927.34
2019-01-24T10:40:39.470Z,100925.91
2019-01-24T10:43:09.348Z,100923.61
2019-01-24T10:45:39.157Z,100929.65
2019-01-24T10:48:09.093Z,100927.11
2019-01-24T10:50:38.822Z,100936.16
2019-01-24T10:53:08.675Z,100932.21
2019-01-24T10:55:38.480Z,100930.52
2019-01-24T10:58:08.432Z,100927.34
2019-01-24T11:00:40.332Z,100935.41
2019-01-24T11:03:12.267Z,100936.45
2019-01-24T11:05:42.079Z,100930.61
2019-01-24T11:08:12.059Z,100929.06
2019-01-24T11:10:41.866Z,100926.11
2019-01-24T11:13:11.738Z,100928.13
2019-01-24T11:15:41.543Z,100941.39
2019-01-24T11:18:11.346Z,100944.27
2019-01-24T11:20:41.178Z,100934.91
2019-01-24T11:23:11.078Z,100935.64
2019-01-24T11:25:40.978Z,100940.77
2019-01-24T11:28:10.715Z,100945.33
2019-01-24T11:30:40.567Z,100944.06
2019-01-24T11:33:10.425Z,100947.08
2019-01-24T11:35:40.434Z,100946.77
2019-01-24T11:38:10.403Z,100944.63
2019-01-24T11:40:40.400Z,100937.15
2019-01-24T11:43:10.214Z,100938.61
2019-01-24T11:45:41.791Z,100944.03
2019-01-24T11:48:11.585Z,100938.73
2019-01-24T11:50:41.394Z,100946.86
2019-01-24T11:53:11.118Z,100940.59
2019-01-24T11:55:40.904Z,100943.17
2019-01-24T11:58:10.814Z,100939.73
2019-01-24T12:00:42.616Z,100941.94
2019-01-24T12:03:12.612Z,100939.08
2019-01-24T12:05:42.333Z,100942.20
2019-01-24T12:08:12.115Z,100938.28
2019-01-24T12:10:41.992Z,100935.16
2019-01-24T12:13:11.749Z,100934.27
2019-01-24T12:15:41.424Z,100937.08
2019-01-24T12:18:11.348Z,100945.20
2019-01-24T12:20:41.212Z,100939.09
2019-01-24T12:23:11.054Z,100939.98
2019-01-24T12:25:40.930Z,100944.78
2019-01-24T12:28:10.684Z,100940.25
2019-01-24T12:30:40.575Z,100932.55
2019-01-24T12:33:10.411Z,100925.95
2019-01-24T12:35:40.077Z,100935.17
2019-01-24T12:38:09.774Z,100936.09
2019-01-24T12:40:39.427Z,100932.86
2019-01-24T12:43:09.246Z,100935.67
2019-01-24T12:45:39.387Z,100939.70
2019-01-24T12:48:09.246Z,100947.35
2019-01-24T12:50:39.065Z,100941.81
2019-01-24T12:53:09.228Z,100944.12
2019-01-24T12:55:38.972Z,100940.80
2019-01-24T12:58:09.207Z,100946.43
2019-01-24T13:00:39.605Z,100943.20
2019-01-24T13:03:09.503Z,100938.68
2019-01-24T13:05:39.327Z,100937.84
2019-01-24T13:08:09.337Z,100929.39
2019-01-24T13:10:39.333Z,100920.75
2019-01-24T13:13:09.181Z,100913.30
2019-01-24T13:15:39.042Z,100910.50
2019-01-24T13:18:09.061Z,100919.63
2019-01-24T13:20:38.728Z,100935.40
2019-01-24T13:23:08.547Z,100933.55
2019-01-24T13:25:38.777Z,100940.10
2019-01-24T13:28:08.546Z,100938.72
2019-01-24T13:30:38.312Z,100943.69
2019-01-24T13:33:08.128Z,100938.38
2019-01-24T13:35:38.032Z,100947.02
2019-01-24T13:38:08.019Z,100951.56
2019-01-24T13:40:37.958Z,100957.81
2019-01-24T13:43:08.039Z,100953.36
2019-01-24T13:45:38.513Z,100957.60
2019-01-24T13:48:08.902Z,100958.68
2019-01-24T13:50:38.897Z,100965.22
2019-01-24T13:53:09.466Z,100961.71
2019-01-24T13:55:39.482Z,100962.50
2019-01-24T13:58:09.769Z,100969.53
2019-01-24T14:00:39.754Z,100963.63
2019-01-24T14:03:19.811Z,100962.31
2019-01-24T14:05:49.602Z,100961.60
2019-01-24T14:08:19.493Z,100971.66
2019-01-24T14:10:49.297Z,100967.20
2019-01-24T14:13:19.153Z,100958.16
2019-01-24T14:15:48.975Z,100961.69
2019-01-24T14:18:18.799Z,100966.11
2019-01-24T14:20:48.782Z,100962.20
2019-01-24T14:23:18.532Z,100960.69
2019-01-24T14:25:48.312Z,100966.92
2019-01-24T14:28:18.118Z,100963.04
2019-01-24T14:30:47.943Z,100962.08
2019-01-24T14:33:17.677Z,100971.75
2019-01-24T14:35:47.578Z,100978.52
2019-01-24T14:38:17.321Z,100972.02
2019-01-24T14:40:47.006Z,100974.52
2019-01-24T14:43:16.750Z,100976.23
2019-01-24T14:45:46.572Z,100976.53
2019-01-24T14:48:16.237Z,100983.90
2019-01-24T14:50:46.023Z,100978.56
2019-01-24T14:53:15.816Z,100981.89
2019-01-24T14:55:45.531Z,100983.98
2019-01-24T14:58:15.282Z,100984.50
2019-01-24T15:00:50.206Z,100983.48
2019-01-24T15:03:20.054Z,100981.69
2019-01-24T15:05:50.054Z,100987.01
2019-01-24T15:08:20.000Z,100984.88
2019-01-24T15:10:49.819Z,101002.19
2019-01-24T15:13:20.224Z,101002.19
2019-01-24T15:15:49.975Z,101009.13
2019-01-24T15:18:19.672Z,101014.36
2019-01-24T15:20:49.918Z,101015.06
2019-01-24T15:23:19.688Z,101014.36
2019-01-24T15:25:49.490Z,101015.88
2019-01-24T15:28:19.245Z,101018.78
2019-01-24T15:30:48.974Z,101026.42
2019-01-24T15:33:18.771Z,101025.93
2019-01-24T15:35:48.499Z,101025.93
2019-01-24T15:38:18.332Z,101026.72
2019-01-24T15:40:48.254Z,101028.64
2019-01-24T15:43:18.005Z,101025.83
2019-01-24T15:45:47.937Z,101030.24
2019-01-24T15:48:18.003Z,101033.87
2019-01-24T15:53:30.233Z,101040.91
2019-01-24T15:56:00.034Z,101037.59
2019-01-24T15:58:30.691Z,101046.53
2019-01-24T16:01:00.817Z,101042.41
2019-01-24T16:03:30.623Z,101041.69
2019-01-24T16:06:00.544Z,101047.11
2019-01-24T16:08:30.368Z,101046.62
2019-01-24T16:11:00.070Z,101048.53
2019-01-24T16:13:29.847Z,101054.25
2019-01-24T16:15:59.850Z,101048.91
2019-01-24T16:18:29.536Z,101054.86
2019-01-24T16:20:59.393Z,101052.86
2019-01-24T16:23:30.319Z,101061.80
2019-01-24T16:26:00.101Z,101066.20
2019-01-24T16:28:29.977Z,101074.74
2019-01-24T16:30:59.740Z,101073.73
2019-01-24T16:33:29.509Z,101073.23
2019-01-24T16:35:59.301Z,101073.23
2019-01-24T16:38:29.039Z,101081.47
2019-01-24T16:40:59.363Z,101081.35
2019-01-24T16:43:29.155Z,101079.77
2019-01-24T16:45:58.868Z,101080.98
2019-01-24T16:48:28.553Z,101075.97
2019-01-24T16:50:58.389Z,101068.22
2019-01-24T16:53:28.173Z,101067.31
2019-01-24T16:55:57.917Z,101072.25
2019-01-24T16:58:27.710Z,101080.17
2019-01-24T17:00:57.720Z,101081.68
2019-01-24T17:03:27.579Z,101079.06
2019-01-24T17:05:57.259Z,101075.55
2019-01-24T17:08:27.040Z,101069.31
2019-01-24T17:10:56.783Z,101085.75
2019-01-24T17:13:26.644Z,101085.05
2019-01-24T17:15:56.401Z,101090.48
2019-01-24T17:18:26.258Z,101093.00
2019-01-24T17:20:55.997Z,101092.69
2019-01-24T17:23:25.911Z,101095.51
2019-01-24T17:25:55.725Z,101095.92
2019-01-24T17:28:25.547Z,101095.23
2019-01-24T17:30:55.309Z,101092.61
2019-01-24T17:33:25.118Z,101087.40
2019-01-24T17:35:54.878Z,101097.42
2019-01-24T17:38:24.523Z,101102.73
2019-01-24T17:40:54.301Z,101103.12
2019-01-24T17:43:24.188Z,101100.03
2019-01-24T17:45:54.083Z,101105.74
2019-01-24T17:48:23.825Z,101107.95
2019-01-24T17:50:53.477Z,101105.69
2019-01-24T17:53:23.317Z,101107.81
2019-01-24T17:55:53.165Z,101120.05
2019-01-24T17:58:22.933Z,101123.41
2019-01-24T18:00:52.994Z,101120.88
2019-01-24T18:03:22.923Z,101118.46
2019-01-24T18:05:52.654Z,101124.38
2019-01-24T18:08:22.487Z,101124.67
2019-01-24T18:10:52.176Z,101125.08
2019-01-24T18:13:22.062Z,101137.86
2019-01-24T18:15:51.866Z,101140.59
2019-01-24T18:18:21.701Z,101143.91
2019-01-24T18:20:51.479Z,101146.59
2019-01-24T18:23:21.241Z,101152.63
2019-01-24T18:25:50.979Z,101155.60
2019-01-24T18:28:20.702Z,101157.62
2019-01-24T18:30:50.698Z,101157.72
2019-01-24T18:33:20.438Z,101160.45
2019-01-24T18:35:50.294Z,101157.43
2019-01-24T18:38:20.018Z,101162.75
2019-01-24T18:40:49.874Z,101171.20
2019-01-24T18:43:20.255Z,101170.58
2019-01-24T18:45:54.010Z,101171.33
2019-01-24T18:48:24.194Z,101166.88
2019-01-24T18:50:54.043Z,101170.80
2019-01-24T18:53:24.045Z,101171.42
2019-01-24T18:55:53.947Z,101177.95
2019-01-24T18:58:23.780Z,101187.09
2019-01-24T19:00:53.645Z,101192.94
2019-01-24T19:03:23.450Z,101185.78
2019-01-24T19:05:53.164Z,101182.76
2019-01-24T19:08:22.919Z,101188.40
2019-01-24T19:10:52.792Z,101181.25
2019-01-24T19:13:22.700Z,101191.62
2019-01-24T19:15:52.530Z,101183.17
2019-01-24T19:18:22.252Z,101191.02
2019-01-24T19:20:52.226Z,101199.34
2019-01-24T19:23:22.130Z,101195.95
2019-01-24T19:25:51.778Z,101194.02
2019-01-24T19:28:21.537Z,101195.63
2019-01-24T19:30:51.509Z,101198.56
2019-01-24T19:33:21.323Z,101197.25
2019-01-24T19:35:51.021Z,101211.52
2019-01-24T19:38:20.861Z,101207.92
2019-01-24T19:40:51.510Z,101204.08
2019-01-24T19:43:21.186Z,101206.81
2019-01-24T19:45:50.949Z,101200.08
2019-01-24T19:48:20.736Z,101199.56
2019-01-24T19:50:50.506Z,101204.69
2019-01-24T19:53:20.259Z,101207.30
2019-01-24T19:55:50.108Z,101209.70
2019-01-24T19:58:20.170Z,101200.55
2019-01-24T20:00:49.881Z,101200.77
2019-01-24T20:03:19.567Z,101200.38
2019-01-24T20:05:49.353Z,101207.81
2019-01-24T20:08:19.060Z,101208.75
2019-01-24T20:10:48.845Z,101204.23
2019-01-24T20:13:18.567Z,101201.12
2019-01-24T20:15:48.409Z,101203.84
2019-01-24T20:18:18.352Z,101204.33
2019-01-24T20:20:48.132Z,101204.31
2019-01-24T20:23:17.911Z,101210.06
2019-01-24T20:25:47.673Z,101208.23
2019-01-24T20:28:17.591Z,101211.66
2019-01-24T20:30:47.480Z,101204.31
2019-01-24T20:33:17.262Z,101208.03
2019-01-24T20:35:51.582Z,101209.03
2019-01-24T20:38:21.329Z,101210.53
2019-01-24T20:40:51.232Z,101200.77
2019-01-24T20:43:21.411Z,101211.66
2019-01-24T20:45:51.223Z,101212.87
2019-01-24T20:48:20.908Z,101212.80
2019-01-24T20:50:50.702Z,101214.92
2019-01-24T20:53:20.533Z,101214.38
2019-01-24T20:55:50.242Z,101214.21
2019-01-24T20:58:20.011Z,101216.50
2019-01-24T21:00:49.832Z,101225.08
2019-01-24T21:03:19.534Z,101222.07
2019-01-24T21:05:49.616Z,101220.44
2019-01-24T21:08:19.412Z,101222.69
2019-01-24T21:10:49.253Z,101218.39
2019-01-24T21:13:18.987Z,101215.77
2019-01-24T21:15:48.739Z,101214.05
2019-01-24T21:18:18.509Z,101215.77
2019-01-24T21:20:48.337Z,101213.77
2019-01-24T21:23:18.073Z,101215.78
2019-01-24T21:25:47.787Z,101219.41
2019-01-24T21:28:17.561Z,101227.13
2019-01-24T21:30:47.408Z,101221.60
2019-01-24T21:33:17.436Z,101222.02
2019-01-24T21:35:47.170Z,101231.38
2019-01-24T21:38:16.883Z,101224.44
2019-01-24T21:40:46.742Z,101229.44
2019-01-24T21:43:16.427Z,101235.55
2019-01-24T21:45:46.212Z,101234.83
2019-01-24T21:48:15.968Z,101230.13
2019-01-24T21:50:45.826Z,101233.66
2019-01-24T21:53:15.642Z,101233.58
2019-01-24T21:55:45.417Z,101230.77
2019-01-24T21:58:15.306Z,101227.34
2019-01-24T22:00:45.094Z,101228.13
2019-01-24T22:03:14.843Z,101221.97
2019-01-24T22:05:44.567Z,101223.67
2019-01-24T22:08:14.484Z,101231.64
2019-01-24T22:10:44.332Z,101235.36
2019-01-24T22:13:14.207Z,101236.05
2019-01-24T22:15:43.941Z,101236.47
2019-01-24T22:18:13.730Z,101235.77
2019-01-24T22:20:43.534Z,101238.59
2019-01-24T22:23:13.247Z,101234.94
2019-01-24T22:25:43.156Z,101238.88
2019-01-24T22:28:12.919Z,101236.27
2019-01-24T22:30:45.073Z,101244.67
2019-01-24T22:33:14.916Z,101253.50
2019-01-24T22:35:44.714Z,101255.64
2019-01-24T22:38:14.541Z,101244.97
2019-01-24T22:40:44.329Z,101249.28
2019-01-24T22:43:14.210Z,101257.68
2019-01-24T22:45:44.496Z,101265.48
2019-01-24T22:48:14.347Z,101259.77
2019-01-24T22:50:45.537Z,101263.25
2019-01-24T22:53:15.670Z,101252.19
2019-01-24T22:55:45.453Z,101263.42
2019-01-24T22:58:15.269Z,101262.70
2019-01-24T23:00:55.386Z,101264.11
2019-01-24T23:03:41.711Z,101267.02
2019-01-24T23:06:11.859Z,101269.23
2019-01-24T23:08:41.674Z,101268.36
2019-01-24T23:11:11.429Z,101275.41
2019-01-24T23:13:41.300Z,101273.48
2019-01-24T23:16:11.198Z,101265.58
2019-01-24T23:18:40.981Z,101270.48
2019-01-24T23:21:10.927Z,101268.95
2019-01-24T23:23:40.647Z,101275.77
2019-01-24T23:26:10.312Z,101277.47
2019-01-24T23:28:40.004Z,101272.17
2019-01-24T23:31:09.794Z,101269.66
2019-01-24T23:33:39.511Z,101271.48
2019-01-24T23:36:09.451Z,101275.70
2019-01-24T23:38:39.257Z,101275.31
2019-01-24T23:41:09.143Z,101275.17
2019-01-24T23:43:39.168Z,101264.79
2019-01-24T23:46:11.447Z,101268.09
2019-01-24T23:48:41.127Z,101273.70
2019-01-24T23:51:10.916Z,101273.52
2019-01-24T23:53:40.625Z,101271.52
2019-01-24T23:56:12.061Z,101267.50
2019-01-24T23:58:41.949Z,101267.89
